Delavan, IL

7:43 PM CDT on September 28, 2016 (GMT -0500)
APRSWXNET | | Change Station

Elev 580 ft 40.36 °N, 89.54 °W | Updated 30 minutes ago

Overcast
Overcast
60 °F
Feels Like 60 °F
N
0
Wind Variable Wind from WSW
Gusts 0.0 mph

Today
High -- | Low -- °F
--% Chance of Precip.
Yesterday
High -- | Low -- °F
Precip. -- in
Pressure 30.07 in
Visibility 10.0 miles
Clouds Overcast 8000 ft
Dew Point 49 °F
Humidity 67%
Rainfall in
Snow Depth Not available.
6:52 AM 6:44 PM
Waning Crescent, 4% visible
METAR KAAA 290035Z AUTO 31004KT 10SM OVC080 15/10 A3007 RMK AO2 T01470103
Pressure 30.07 in
Visibility 10.0 miles
Clouds Overcast 8000 ft
Dew Point 49 °F
Humidity 67%
Rainfall in
Snow Depth Not available.
6:52 AM 6:44 PM
Waning Crescent, 4% visible
METAR KAAA 290035Z AUTO 31004KT 10SM OVC080 15/10 A3007 RMK AO2 T01470103

10-Day Weather Forecast

Almanac

Astronomy

Sep. 28, 2016 Rise Set
Actual Time
Civil Twilight
Nautical Twilight
Astronomical Twilight
Moon
Length of Visible Light
Length of Day
Tomorrow will be .
, % of the Moon is Illuminated

Today's Extremes

State Highs State Lows

Community

WunderPhotos

Upload Photos

1,942,370 photos uploaded!

WunderBlog® & News

Nearby

Air Quality

  Air Quality AQ Index Pollutant
Not available.

Snow Depth

Station Depth Elevation

Earthquake Activity

City Distance Mag. Time & Date
Minimum magnitude displayed is 2.5.

Coastal Water Temperatures

Place Temperature

Stations

Nearby Weather Stations

Station Location Temp. Windchill Dew Point Humidity Wind Precip. Elev Updated Type
                   

Watches & Warnings

There are currently no watches in effect.